Marsland, Nebraska
Current Conditions -  °F | °C
As of 10:53 AM on Tuesday 21 Oct 2014 (Local Time) from KCDR Reporting Station
Scattered Clouds Scattered Clouds  
Wind Chill: 71°   Ceiling: Unl
Heat Index: 71°   Visibility: 9mi
Dew Point: 48°   Wind: 6mph
Humidity: 44%   Direction: 220°SW
Pressure: 29.88"   Gusts: NA
Location:  42.44°N, 103.3°W
Report Text: KCDR 211653Z AUTO 22005KT 9SM SCT120 22/09 A2988 RMK AO2 SLP099 T02170089
Loading
Personal Weather Stations






























Interactive Weather Map New forecast layout! Learn more

10-Day Weather Forecast

Advertisements
Track Severe Weather on mobile